sensor_id;sensor_type;location;lat;lon;timestamp;pressure;altitude;pressure_sealevel;temperature;humidity
51249;BME280;39642;47.556;18.728;2023-02-28T00:01:26;100611.75;;;21.25;21.99
51249;BME280;39642;47.556;18.728;2023-02-28T00:03:52;100611.75;;;21.25;22.02
51249;BME280;39642;47.556;18.728;2023-02-28T00:06:18;100618.84;;;21.24;22.04
51249;BME280;39642;47.556;18.728;2023-02-28T00:08:44;100625.03;;;21.23;21.98
51249;BME280;39642;47.556;18.728;2023-02-28T00:11:12;100624.19;;;21.23;22.01
51249;BME280;39642;47.556;18.728;2023-02-28T00:13:41;100622.41;;;21.23;21.96
51249;BME280;39642;47.556;18.728;2023-02-28T00:16:10;100627.78;;;21.21;22.02
51249;BME280;39642;47.556;18.728;2023-02-28T00:18:37;100627.78;;;21.21;22.02
51249;BME280;39642;47.556;18.728;2023-02-28T00:21:04;100637.44;;;21.23;22.04
51249;BME280;39642;47.556;18.728;2023-02-28T00:23:30;100627.78;;;21.21;22.07
51249;BME280;39642;47.556;18.728;2023-02-28T00:25:56;100633.94;;;21.22;22.02
51249;BME280;39642;47.556;18.728;2023-02-28T00:28:22;100634.78;;;21.23;22.03
51249;BME280;39642;47.556;18.728;2023-02-28T00:30:48;100634.78;;;21.23;22.02
51249;BME280;39642;47.556;18.728;2023-02-28T00:33:14;100636.53;;;21.24;22.00
51249;BME280;39642;47.556;18.728;2023-02-28T00:35:40;100640.09;;;21.23;21.98
51249;BME280;39642;47.556;18.728;2023-02-28T00:38:06;100648.88;;;21.23;22.01
51249;BME280;39642;47.556;18.728;2023-02-28T00:40:32;100648.97;;;21.21;22.02
51249;BME280;39642;47.556;18.728;2023-02-28T00:42:58;100643.69;;;21.21;21.98
51249;BME280;39642;47.556;18.728;2023-02-28T00:45:23;100650.78;;;21.21;21.97
51249;BME280;39642;47.556;18.728;2023-02-28T00:47:49;100648.97;;;21.21;22.02
51249;BME280;39642;47.556;18.728;2023-02-28T00:50:17;100648.97;;;21.21;21.98
51249;BME280;39642;47.556;18.728;2023-02-28T00:52:44;100653.34;;;21.23;21.95
51249;BME280;39642;47.556;18.728;2023-02-28T00:55:10;100655.97;;;21.23;22.03
51249;BME280;39642;47.556;18.728;2023-02-28T00:57:36;100651.53;;;21.23;22.03
51249;BME280;39642;47.556;18.728;2023-02-28T01:00:03;100655.91;;;21.24;22.10
51249;BME280;39642;47.556;18.728;2023-02-28T01:02:30;100647.13;;;21.24;22.09
51249;BME280;39642;47.556;18.728;2023-02-28T01:04:55;100653.25;;;21.24;22.02
51249;BME280;39642;47.556;18.728;2023-02-28T01:07:23;100649.66;;;21.25;22.07
51249;BME280;39642;47.556;18.728;2023-02-28T01:09:49;100655.84;;;21.26;22.08
51249;BME280;39642;47.556;18.728;2023-02-28T01:12:15;100652.25;;;21.27;22.01
51249;BME280;39642;47.556;18.728;2023-02-28T01:14:41;100647.81;;;21.27;22.02
51249;BME280;39642;47.556;18.728;2023-02-28T01:17:08;100652.25;;;21.27;22.02
51249;BME280;39642;47.556;18.728;2023-02-28T01:19:34;100650.56;;;21.26;22.02
51249;BME280;39642;47.556;18.728;2023-02-28T01:22:04;100665.50;;;21.27;21.95
51249;BME280;39642;47.556;18.728;2023-02-28T01:24:31;100653.97;;;21.28;21.99
51249;BME280;39642;47.556;18.728;2023-02-28T01:26:57;100650.47;;;21.27;21.96
51249;BME280;39642;47.556;18.728;2023-02-28T01:29:23;100650.56;;;21.26;21.97
51249;BME280;39642;47.556;18.728;2023-02-28T01:31:49;100652.31;;;21.25;21.94
51249;BME280;39642;47.556;18.728;2023-02-28T01:34:14;100648.81;;;21.25;21.90
51249;BME280;39642;47.556;18.728;2023-02-28T01:36:40;100651.47;;;21.25;21.94
51249;BME280;39642;47.556;18.728;2023-02-28T01:39:06;100645.31;;;21.24;21.96
51249;BME280;39642;47.556;18.728;2023-02-28T01:41:33;100647.13;;;21.24;21.98
51249;BME280;39642;47.556;18.728;2023-02-28T01:47:10;100658.56;;;21.24;21.99
51249;BME280;39642;47.556;18.728;2023-02-28T01:49:37;100647.13;;;21.24;21.96
51249;BME280;39642;47.556;18.728;2023-02-28T01:52:03;100642.66;;;21.24;22.00
51249;BME280;39642;47.556;18.728;2023-02-28T01:54:31;100645.38;;;21.23;21.94
51249;BME280;39642;47.556;18.728;2023-02-28T01:57:05;100650.63;;;21.24;21.96
51249;BME280;39642;47.556;18.728;2023-02-28T01:59:33;100658.56;;;21.24;21.97
51249;BME280;39642;47.556;18.728;2023-02-28T02:02:02;100654.19;;;21.23;21.98
51249;BME280;39642;47.556;18.728;2023-02-28T02:04:37;100656.84;;;21.23;21.96
51249;BME280;39642;47.556;18.728;2023-02-28T02:07:05;100648.03;;;21.23;21.94
51249;BME280;39642;47.556;18.728;2023-02-28T02:09:31;100650.69;;;21.23;21.97
51249;BME280;39642;47.556;18.728;2023-02-28T02:11:57;100642.72;;;21.23;21.95
51249;BME280;39642;47.556;18.728;2023-02-28T02:26:06;100641.81;;;21.24;21.98
51249;BME280;39642;47.556;18.728;2023-02-28T02:31:51;100639.97;;;21.26;22.09
51249;BME280;39642;47.556;18.728;2023-02-28T02:34:29;100642.59;;;21.26;22.07
51249;BME280;39642;47.556;18.728;2023-02-28T02:37:10;100640.81;;;21.26;22.06
51249;BME280;39642;47.556;18.728;2023-02-28T02:39:58;100636.38;;;21.27;22.03
51249;BME280;39642;47.556;18.728;2023-02-28T02:42:31;100642.50;;;21.27;22.03
51249;BME280;39642;47.556;18.728;2023-02-28T02:45:59;100638.94;;;21.28;21.99
51249;BME280;39642;47.556;18.728;2023-02-28T02:48:03;100638.06;;;21.28;22.03
51249;BME280;39642;47.556;18.728;2023-02-28T02:50:38;100638.06;;;21.28;21.96
51249;BME280;39642;47.556;18.728;2023-02-28T02:53:06;100639.00;;;21.27;21.96
51249;BME280;39642;47.556;18.728;2023-02-28T02:55:35;100644.31;;;21.27;21.96
51249;BME280;39642;47.556;18.728;2023-02-28T02:58:06;100645.25;;;21.26;21.96
51249;BME280;39642;47.556;18.728;2023-02-28T03:00:41;100639.97;;;21.26;22.04
51249;BME280;39642;47.556;18.728;2023-02-28T03:03:09;100642.59;;;21.26;22.01
51249;BME280;39642;47.556;18.728;2023-02-28T03:05:48;100645.25;;;21.26;21.97
51249;BME280;39642;47.556;18.728;2023-02-28T03:08:15;100642.66;;;21.24;22.00
51249;BME280;39642;47.556;18.728;2023-02-28T03:10:42;100651.47;;;21.25;22.00
51249;BME280;39642;47.556;18.728;2023-02-28T03:22:04;100655.91;;;21.24;22.04
51249;BME280;39642;47.556;18.728;2023-02-28T03:27:17;100655.91;;;21.24;22.00
51249;BME280;39642;47.556;18.728;2023-02-28T03:29:56;100652.41;;;21.24;22.03
51249;BME280;39642;47.556;18.728;2023-02-28T03:32:32;100659.41;;;21.25;22.05
51249;BME280;39642;47.556;18.728;2023-02-28T03:35:05;100655.06;;;21.24;22.01
51249;BME280;39642;47.556;18.728;2023-02-28T03:37:35;100652.41;;;21.24;22.01
51249;BME280;39642;47.556;18.728;2023-02-28T03:40:11;100648.03;;;21.23;22.00
51249;BME280;39642;47.556;18.728;2023-02-28T03:42:41;100652.41;;;21.24;22.04
51249;BME280;39642;47.556;18.728;2023-02-28T03:47:58;100658.56;;;21.24;22.07
51249;BME280;39642;47.556;18.728;2023-02-28T03:50:37;100648.81;;;21.25;22.09
51249;BME280;39642;47.556;18.728;2023-02-28T03:53:14;100654.19;;;21.23;22.09
51249;BME280;39642;47.556;18.728;2023-02-28T03:55:45;100664.72;;;21.25;22.11
51249;BME280;39642;47.556;18.728;2023-02-28T04:01:02;100655.84;;;21.26;22.14
51249;BME280;39642;47.556;18.728;2023-02-28T04:03:37;100653.19;;;21.26;22.11
51249;BME280;39642;47.556;18.728;2023-02-28T04:06:05;100657.56;;;21.27;22.15
51249;BME280;39642;47.556;18.728;2023-02-28T04:08:33;100653.09;;;21.27;22.09
51249;BME280;39642;47.556;18.728;2023-02-28T04:11:13;100651.31;;;21.28;22.03
51249;BME280;39642;47.556;18.728;2023-02-28T04:13:42;100649.53;;;21.28;22.03
51249;BME280;39642;47.556;18.728;2023-02-28T04:16:09;100655.69;;;21.29;22.06
51249;BME280;39642;47.556;18.728;2023-02-28T04:18:41;100648.66;;;21.28;22.09
51249;BME280;39642;47.556;18.728;2023-02-28T04:21:09;100653.97;;;21.28;22.01
51249;BME280;39642;47.556;18.728;2023-02-28T04:23:34;100647.81;;;21.27;22.10
51249;BME280;39642;47.556;18.728;2023-02-28T04:26:00;100654.91;;;21.27;22.04
51249;BME280;39642;47.556;18.728;2023-02-28T04:28:26;100649.66;;;21.25;22.07
51249;BME280;39642;47.556;18.728;2023-02-28T04:30:57;100646.16;;;21.25;22.05
51249;BME280;39642;47.556;18.728;2023-02-28T04:33:23;100643.53;;;21.25;22.08
51249;BME280;39642;47.556;18.728;2023-02-28T04:36:01;100641.72;;;21.25;22.08
51249;BME280;39642;47.556;18.728;2023-02-28T04:38:30;100646.16;;;21.25;22.03
51249;BME280;39642;47.556;18.728;2023-02-28T04:40:58;100642.66;;;21.24;22.13
51249;BME280;39642;47.556;18.728;2023-02-28T04:43:26;100640.87;;;21.25;22.10
51249;BME280;39642;47.556;18.728;2023-02-28T04:45:53;100640.03;;;21.24;22.08
51249;BME280;39642;47.556;18.728;2023-02-28T04:48:27;100648.81;;;21.25;22.11
51249;BME280;39642;47.556;18.728;2023-02-28T04:50:53;100644.37;;;21.25;22.10
51249;BME280;39642;47.556;18.728;2023-02-28T04:53:19;100644.37;;;21.25;22.10
51249;BME280;39642;47.556;18.728;2023-02-28T04:55:46;100642.66;;;21.24;22.07
51249;BME280;39642;47.556;18.728;2023-02-28T04:58:13;100637.37;;;21.24;22.16
51249;BME280;39642;47.556;18.728;2023-02-28T05:00:39;100642.72;;;21.23;22.17
51249;BME280;39642;47.556;18.728;2023-02-28T05:03:05;100638.38;;;21.21;22.13
51249;BME280;39642;47.556;18.728;2023-02-28T05:05:31;100646.22;;;21.23;22.21
51249;BME280;39642;47.556;18.728;2023-02-28T05:07:57;100648.03;;;21.23;22.19
51249;BME280;39642;47.556;18.728;2023-02-28T05:10:23;100648.88;;;21.23;22.19
51249;BME280;39642;47.556;18.728;2023-02-28T05:12:49;100655.06;;;21.24;22.18
51249;BME280;39642;47.556;18.728;2023-02-28T05:15:16;100647.13;;;21.24;22.19
51249;BME280;39642;47.556;18.728;2023-02-28T05:17:43;100652.31;;;21.25;22.21
51249;BME280;39642;47.556;18.728;2023-02-28T05:20:09;100659.34;;;21.26;22.22
51249;BME280;39642;47.556;18.728;2023-02-28T05:22:42;100652.31;;;21.25;22.23
51249;BME280;39642;47.556;18.728;2023-02-28T05:25:16;100654.13;;;21.25;22.28
51249;BME280;39642;47.556;18.728;2023-02-28T05:27:42;100659.41;;;21.25;22.24
51249;BME280;39642;47.556;18.728;2023-02-28T05:30:09;100663.87;;;21.24;22.21
51249;BME280;39642;47.556;18.728;2023-02-28T05:32:37;100665.56;;;21.25;22.29
51249;BME280;39642;47.556;18.728;2023-02-28T05:35:04;100668.22;;;21.25;22.24
51249;BME280;39642;47.556;18.728;2023-02-28T05:37:30;100670.00;;;21.25;22.30
51249;BME280;39642;47.556;18.728;2023-02-28T05:39:56;100682.34;;;21.26;22.31
51249;BME280;39642;47.556;18.728;2023-02-28T05:42:22;100677.03;;;21.26;22.33
51249;BME280;39642;47.556;18.728;2023-02-28T05:44:48;100677.03;;;21.26;22.21
51249;BME280;39642;47.556;18.728;2023-02-28T05:47:13;100680.59;;;21.25;23.42
51249;BME280;39642;47.556;18.728;2023-02-28T05:49:41;100681.47;;;21.25;25.32
51249;BME280;39642;47.556;18.728;2023-02-28T05:52:07;100676.94;;;21.27;26.04
51249;BME280;39642;47.556;18.728;2023-02-28T05:54:33;100682.97;;;21.31;26.46
51249;BME280;39642;47.556;18.728;2023-02-28T05:56:59;100681.16;;;21.31;23.98
51249;BME280;39642;47.556;18.728;2023-02-28T05:59:25;100680.31;;;21.31;23.53
51249;BME280;39642;47.556;18.728;2023-02-28T06:01:51;100696.16;;;21.32;23.05
51249;BME280;39642;47.556;18.728;2023-02-28T06:04:20;100691.78;;;21.31;24.39
51249;BME280;39642;47.556;18.728;2023-02-28T06:06:47;100701.50;;;21.31;23.64
51249;BME280;39642;47.556;18.728;2023-02-28T06:09:14;100696.22;;;21.31;23.08
51249;BME280;39642;47.556;18.728;2023-02-28T06:11:40;100692.62;;;21.32;23.12
51249;BME280;39642;47.556;18.728;2023-02-28T06:14:07;100698.81;;;21.32;23.06
51249;BME280;39642;47.556;18.728;2023-02-28T06:16:34;100697.91;;;21.32;24.16
51249;BME280;39642;47.556;18.728;2023-02-28T06:19:02;100697.91;;;21.32;23.88
51249;BME280;39642;47.556;18.728;2023-02-28T06:21:29;100696.22;;;21.31;25.16
51249;BME280;39642;47.556;18.728;2023-02-28T06:23:56;100697.13;;;21.30;26.01
51249;BME280;39642;47.556;18.728;2023-02-28T06:26:23;100702.53;;;21.28;26.03
51249;BME280;39642;47.556;18.728;2023-02-28T06:28:49;100705.06;;;21.30;26.40
51249;BME280;39642;47.556;18.728;2023-02-28T06:31:16;100705.06;;;21.30;27.23
51249;BME280;39642;47.556;18.728;2023-02-28T06:33:43;100706.94;;;21.28;26.53
51249;BME280;39642;47.556;18.728;2023-02-28T06:36:11;100711.37;;;21.27;27.16
51249;BME280;39642;47.556;18.728;2023-02-28T06:38:38;100710.53;;;21.27;26.68
51249;BME280;39642;47.556;18.728;2023-02-28T06:41:05;100715.97;;;21.24;26.96
51249;BME280;39642;47.556;18.728;2023-02-28T06:43:35;100712.53;;;21.21;27.97
51249;BME280;39642;47.556;18.728;2023-02-28T06:46:03;100702.06;;;21.18;27.49
51249;BME280;39642;47.556;18.728;2023-02-28T06:48:29;100712.75;;;21.17;28.06
51249;BME280;39642;47.556;18.728;2023-02-28T06:51:09;100714.53;;;21.16;27.78
51249;BME280;39642;47.556;18.728;2023-02-28T06:53:36;100714.75;;;21.12;28.04
51249;BME280;39642;47.556;18.728;2023-02-28T06:56:11;100708.59;;;21.11;26.90
51249;BME280;39642;47.556;18.728;2023-02-28T06:58:37;100707.81;;;21.09;25.68
51249;BME280;39642;47.556;18.728;2023-02-28T07:01:05;100712.19;;;21.10;26.20
51249;BME280;39642;47.556;18.728;2023-02-28T07:03:31;100707.69;;;21.12;25.49
51249;BME280;39642;47.556;18.728;2023-02-28T07:05:57;100704.09;;;21.13;26.12
51249;BME280;39642;47.556;18.728;2023-02-28T07:08:24;100716.31;;;21.16;25.78
51249;BME280;39642;47.556;18.728;2023-02-28T07:10:55;100725.00;;;21.19;25.10
51249;BME280;39642;47.556;18.728;2023-02-28T07:13:22;100721.34;;;21.22;24.26
51249;BME280;39642;47.556;18.728;2023-02-28T07:16:02;100722.84;;;21.28;24.10
51249;BME280;39642;47.556;18.728;2023-02-28T07:18:29;100724.41;;;21.32;24.14
51249;BME280;39642;47.556;18.728;2023-02-28T07:20:55;100729.59;;;21.35;23.96
51249;BME280;39642;47.556;18.728;2023-02-28T07:23:21;100733.16;;;21.34;24.93
51249;BME280;39642;47.556;18.728;2023-02-28T07:25:48;100727.06;;;21.32;25.43
51249;BME280;39642;47.556;18.728;2023-02-28T07:28:14;100728.84;;;21.31;24.00
51249;BME280;39642;47.556;18.728;2023-02-28T07:30:40;100721.84;;;21.30;22.87
51249;BME280;39642;47.556;18.728;2023-02-28T07:33:07;100726.22;;;21.31;22.88
51249;BME280;39642;47.556;18.728;2023-02-28T07:35:33;100727.84;;;21.34;23.01
51249;BME280;39642;47.556;18.728;2023-02-28T07:37:59;100731.28;;;21.36;22.54
51249;BME280;39642;47.556;18.728;2023-02-28T07:40:25;100733.75;;;21.40;22.89
51249;BME280;39642;47.556;18.728;2023-02-28T07:42:51;100734.47;;;21.44;22.70
51249;BME280;39642;47.556;18.728;2023-02-28T07:45:16;100738.72;;;21.48;23.08
51249;BME280;39642;47.556;18.728;2023-02-28T07:47:43;100743.84;;;21.51;24.09
51249;BME280;39642;47.556;18.728;2023-02-28T07:50:12;100739.34;;;21.53;24.23
51249;BME280;39642;47.556;18.728;2023-02-28T07:52:39;100738.37;;;21.54;24.54
51249;BME280;39642;47.556;18.728;2023-02-28T07:55:06;100742.69;;;21.57;26.33
51249;BME280;39642;47.556;18.728;2023-02-28T07:57:33;100745.28;;;21.58;25.18
51249;BME280;39642;47.556;18.728;2023-02-28T07:59:59;100743.47;;;21.59;26.33
51249;BME280;39642;47.556;18.728;2023-02-28T08:02:25;100747.84;;;21.60;26.46
51249;BME280;39642;47.556;18.728;2023-02-28T08:04:51;100744.19;;;21.62;26.20
51249;BME280;39642;47.556;18.728;2023-02-28T08:07:17;100739.69;;;21.65;26.78
51249;BME280;39642;47.556;18.728;2023-02-28T08:09:44;100744.12;;;21.64;25.44
51249;BME280;39642;47.556;18.728;2023-02-28T08:12:11;100738.72;;;21.66;24.20
51249;BME280;39642;47.556;18.728;2023-02-28T08:14:37;100740.53;;;21.65;23.96
51249;BME280;39642;47.556;18.728;2023-02-28T08:17:03;100739.63;;;21.66;24.10
51249;BME280;39642;47.556;18.728;2023-02-28T08:19:29;100740.47;;;21.67;24.26
51249;BME280;39642;47.556;18.728;2023-02-28T08:21:56;100743.97;;;21.67;25.15
51249;BME280;39642;47.556;18.728;2023-02-28T08:24:22;100742.16;;;21.68;25.74
51249;BME280;39642;47.556;18.728;2023-02-28T08:26:49;100739.53;;;21.68;26.61
51249;BME280;39642;47.556;18.728;2023-02-28T08:29:15;100737.81;;;21.67;25.75
51249;BME280;39642;47.556;18.728;2023-02-28T08:31:41;100740.47;;;21.67;25.41
51249;BME280;39642;47.556;18.728;2023-02-28T08:34:08;100736.03;;;21.67;24.74
51249;BME280;39642;47.556;18.728;2023-02-28T08:36:35;100729.88;;;21.67;24.54
51249;BME280;39642;47.556;18.728;2023-02-28T08:39:01;100725.41;;;21.67;25.01
51249;BME280;39642;47.556;18.728;2023-02-28T08:41:27;100724.56;;;21.67;25.16
51249;BME280;39642;47.556;18.728;2023-02-28T08:43:52;100730.00;;;21.63;25.77
51249;BME280;39642;47.556;18.728;2023-02-28T08:46:19;100723.16;;;21.59;25.35
51249;BME280;39642;47.556;18.728;2023-02-28T08:48:45;100723.16;;;21.59;24.86
51249;BME280;39642;47.556;18.728;2023-02-28T08:51:17;100724.00;;;21.60;25.64
51249;BME280;39642;47.556;18.728;2023-02-28T08:53:47;100726.88;;;21.55;27.84
51249;BME280;39642;47.556;18.728;2023-02-28T08:56:16;100731.31;;;21.55;27.22
51249;BME280;39642;47.556;18.728;2023-02-28T08:58:46;100724.06;;;21.58;25.99
51249;BME280;39642;47.556;18.728;2023-02-28T09:01:14;100717.75;;;21.61;27.36
51249;BME280;39642;47.556;18.728;2023-02-28T09:03:41;100725.63;;;21.62;27.32
51249;BME280;39642;47.556;18.728;2023-02-28T09:06:08;100726.56;;;21.61;27.57
51249;BME280;39642;47.556;18.728;2023-02-28T09:08:34;100727.50;;;21.60;27.71
51249;BME280;39642;47.556;18.728;2023-02-28T09:11:01;100730.16;;;21.60;28.01
51249;BME280;39642;47.556;18.728;2023-02-28T09:13:27;100728.44;;;21.59;28.59
51249;BME280;39642;47.556;18.728;2023-02-28T09:15:54;100731.09;;;21.59;28.56
51249;BME280;39642;47.556;18.728;2023-02-28T09:18:20;100718.81;;;21.57;28.38
51249;BME280;39642;47.556;18.728;2023-02-28T09:20:46;100724.13;;;21.57;28.62
51249;BME280;39642;47.556;18.728;2023-02-28T09:23:12;100723.28;;;21.56;27.46
51249;BME280;39642;47.556;18.728;2023-02-28T09:25:46;100724.91;;;21.59;27.43
51249;BME280;39642;47.556;18.728;2023-02-28T09:28:12;100730.00;;;21.63;27.34
51249;BME280;39642;47.556;18.728;2023-02-28T09:30:39;100729.88;;;21.67;27.19
51249;BME280;39642;47.556;18.728;2023-02-28T09:33:05;100738.59;;;21.69;27.00
51249;BME280;39642;47.556;18.728;2023-02-28T09:35:31;100734.16;;;21.69;26.98
51249;BME280;39642;47.556;18.728;2023-02-28T09:37:57;100731.28;;;21.74;27.57
51249;BME280;39642;47.556;18.728;2023-02-28T09:40:25;100732.13;;;21.74;27.35
51249;BME280;39642;47.556;18.728;2023-02-28T09:42:53;100728.47;;;21.77;27.50
51249;BME280;39642;47.556;18.728;2023-02-28T09:45:28;100738.37;;;21.73;27.06
51249;BME280;39642;47.556;18.728;2023-02-28T09:47:59;100730.66;;;21.69;26.18
51249;BME280;39642;47.556;18.728;2023-02-28T09:50:40;100733.53;;;21.64;25.69
51249;BME280;39642;47.556;18.728;2023-02-28T09:53:26;100735.44;;;21.60;25.86
51249;BME280;39642;47.556;18.728;2023-02-28T09:55:57;100733.88;;;21.56;25.73
51249;BME280;39642;47.556;18.728;2023-02-28T10:01:31;100743.13;;;21.48;24.86
51249;BME280;39642;47.556;18.728;2023-02-28T10:04:36;100738.03;;;21.43;25.24
51249;BME280;39642;47.556;18.728;2023-02-28T10:07:14;100729.19;;;21.44;25.19
51249;BME280;39642;47.556;18.728;2023-02-28T10:09:47;100736.81;;;21.50;25.64
51249;BME280;39642;47.556;18.728;2023-02-28T10:12:16;100724.13;;;21.57;25.61
51249;BME280;39642;47.556;18.728;2023-02-28T10:14:45;100723.91;;;21.61;25.92
51249;BME280;39642;47.556;18.728;2023-02-28T10:17:22;100720.12;;;21.67;26.16
51249;BME280;39642;47.556;18.728;2023-02-28T10:22:21;100713.50;;;21.76;26.50
51249;BME280;39642;47.556;18.728;2023-02-28T10:24:54;100718.66;;;21.79;26.85
51249;BME280;39642;47.556;18.728;2023-02-28T10:27:23;100712.50;;;21.78;26.79
51249;BME280;39642;47.556;18.728;2023-02-28T10:29:54;100706.19;;;21.81;26.77
51249;BME280;39642;47.556;18.728;2023-02-28T10:32:23;100709.62;;;21.83;26.89
51249;BME280;39642;47.556;18.728;2023-02-28T10:34:52;100701.66;;;21.83;26.98
51249;BME280;39642;47.556;18.728;2023-02-28T10:37:21;100699.88;;;21.83;27.09
51249;BME280;39642;47.556;18.728;2023-02-28T10:39:47;100703.31;;;21.86;27.26
51249;BME280;39642;47.556;18.728;2023-02-28T10:42:28;100689.25;;;21.83;27.63
51249;BME280;39642;47.556;18.728;2023-02-28T10:47:48;100687.69;;;21.79;26.94
51249;BME280;39642;47.556;18.728;2023-02-28T10:50:50;100690.44;;;21.78;26.96
51249;BME280;39642;47.556;18.728;2023-02-28T10:53:32;100684.47;;;21.73;26.72
51249;BME280;39642;47.556;18.728;2023-02-28T11:01:36;100677.53;;;21.70;27.22
51249;BME280;39642;47.556;18.728;2023-02-28T11:04:04;100670.38;;;21.72;27.15
51249;BME280;39642;47.556;18.728;2023-02-28T11:06:41;100668.56;;;21.73;27.27
51249;BME280;39642;47.556;18.728;2023-02-28T11:09:27;100669.34;;;21.75;27.28
51249;BME280;39642;47.556;18.728;2023-02-28T11:11:57;100674.53;;;21.78;27.19
51249;BME280;39642;47.556;18.728;2023-02-28T11:14:32;100670.00;;;21.80;27.19
51249;BME280;39642;47.556;18.728;2023-02-28T11:17:14;100666.25;;;21.84;27.32
51249;BME280;39642;47.556;18.728;2023-02-28T11:19:45;100661.72;;;21.86;27.65
51249;BME280;39642;47.556;18.728;2023-02-28T11:22:17;100665.09;;;21.90;27.31
51249;BME280;39642;47.556;18.728;2023-02-28T11:24:48;100665.81;;;21.93;27.74
51249;BME280;39642;47.556;18.728;2023-02-28T11:29:58;100663.78;;;21.98;27.77
51249;BME280;39642;47.556;18.728;2023-02-28T11:32:28;100660.97;;;22.01;27.84
51249;BME280;39642;47.556;18.728;2023-02-28T11:37:28;100654.88;;;21.99;27.98
51249;BME280;39642;47.556;18.728;2023-02-28T11:39:55;100652.16;;;22.01;27.95
51249;BME280;39642;47.556;18.728;2023-02-28T11:47:50;100654.19;;;21.96;28.15
51249;BME280;39642;47.556;18.728;2023-02-28T11:50:30;100650.50;;;21.98;28.77
51249;BME280;39642;47.556;18.728;2023-02-28T11:53:10;100648.03;;;21.95;28.84
51249;BME280;39642;47.556;18.728;2023-02-28T11:55:39;100648.03;;;21.95;28.54
51249;BME280;39642;47.556;18.728;2023-02-28T11:58:17;100638.50;;;21.91;28.94
51249;BME280;39642;47.556;18.728;2023-02-28T12:12:30;100631.56;;;21.71;27.50
51249;BME280;39642;47.556;18.728;2023-02-28T12:14:53;100629.94;;;21.69;27.87
51249;BME280;39642;47.556;18.728;2023-02-28T12:28:25;100611.22;;;21.72;28.68
51249;BME280;39642;47.556;18.728;2023-02-28T12:30:58;100611.13;;;21.73;28.21
51249;BME280;39642;47.556;18.728;2023-02-28T12:33:32;100608.50;;;21.73;28.01
51249;BME280;39642;47.556;18.728;2023-02-28T12:36:05;100602.25;;;21.74;28.23
51249;BME280;39642;47.556;18.728;2023-02-28T12:38:45;100599.66;;;21.73;27.87
51249;BME280;39642;47.556;18.728;2023-02-28T12:41:16;100596.16;;;21.72;27.33
51249;BME280;39642;47.556;18.728;2023-02-28T12:43:46;100599.81;;;21.70;28.18
51249;BME280;39642;47.556;18.728;2023-02-28T12:46:59;100598.25;;;21.66;28.30
51249;BME280;39642;47.556;18.728;2023-02-28T12:52:00;100598.72;;;21.56;26.52
51249;BME280;39642;47.556;18.728;2023-02-28T12:54:38;100597.16;;;21.52;25.71
51249;BME280;39642;47.556;18.728;2023-02-28T12:57:36;100596.47;;;21.49;25.78
51249;BME280;39642;47.556;18.728;2023-02-28T13:00:14;100587.81;;;21.45;25.66
51249;BME280;39642;47.556;18.728;2023-02-28T13:03:09;100585.87;;;21.49;27.11
51249;BME280;39642;47.556;18.728;2023-02-28T13:14:13;100574.41;;;21.48;26.30
51249;BME280;39642;47.556;18.728;2023-02-28T13:17:10;100568.16;;;21.49;26.28
51249;BME280;39642;47.556;18.728;2023-02-28T13:19:56;100571.66;;;21.50;26.94
51249;BME280;39642;47.556;18.728;2023-02-28T13:24:53;100571.78;;;21.48;26.19
51249;BME280;39642;47.556;18.728;2023-02-28T13:27:31;100561.31;;;21.45;26.37
51249;BME280;39642;47.556;18.728;2023-02-28T13:29:58;100560.53;;;21.43;25.98
51249;BME280;39642;47.556;18.728;2023-02-28T13:39:51;100561.75;;;21.36;25.55
51249;BME280;39642;47.556;18.728;2023-02-28T13:50:22;100552.72;;;21.40;26.40
51249;BME280;39642;47.556;18.728;2023-02-28T14:01:11;100554.16;;;21.47;26.69
51249;BME280;39642;47.556;18.728;2023-02-28T14:03:47;100548.78;;;21.49;26.75
51249;BME280;39642;47.556;18.728;2023-02-28T14:13:00;100540.34;;;21.58;26.47
51249;BME280;39642;47.556;18.728;2023-02-28T14:18:05;100544.72;;;21.59;26.22
51249;BME280;39642;47.556;18.728;2023-02-28T14:20:36;100544.72;;;21.59;26.03
51249;BME280;39642;47.556;18.728;2023-02-28T14:26:02;100543.78;;;21.60;26.60
51249;BME280;39642;47.556;18.728;2023-02-28T14:31:29;100539.50;;;21.57;29.66
51249;BME280;39642;47.556;18.728;2023-02-28T14:34:17;100533.31;;;21.57;31.19
51249;BME280;39642;47.556;18.728;2023-02-28T14:36:52;100533.44;;;21.55;32.28
51249;BME280;39642;47.556;18.728;2023-02-28T14:39:22;100529.16;;;21.53;32.91
51249;BME280;39642;47.556;18.728;2023-02-28T14:52:44;100534.75;;;21.47;32.44
51249;BME280;39642;47.556;18.728;2023-02-28T14:58:23;100534.75;;;21.47;32.00
51249;BME280;39642;47.556;18.728;2023-02-28T15:00:51;100532.94;;;21.47;33.17
51249;BME280;39642;47.556;18.728;2023-02-28T15:03:22;100535.53;;;21.49;32.52
51249;BME280;39642;47.556;18.728;2023-02-28T15:06:03;100540.72;;;21.50;31.32
51249;BME280;39642;47.556;18.728;2023-02-28T15:08:30;100539.81;;;21.51;35.27
51249;BME280;39642;47.556;18.728;2023-02-28T15:11:03;100541.59;;;21.51;36.04
51249;BME280;39642;47.556;18.728;2023-02-28T15:13:37;100539.75;;;21.53;37.28
51249;BME280;39642;47.556;18.728;2023-02-28T15:16:09;100539.75;;;21.53;35.11
51249;BME280;39642;47.556;18.728;2023-02-28T15:18:48;100546.03;;;21.50;33.69
51249;BME280;39642;47.556;18.728;2023-02-28T15:21:19;100550.41;;;21.51;38.11
51249;BME280;39642;47.556;18.728;2023-02-28T15:23:52;100553.00;;;21.53;38.28